Time;durP1;ratioP1;P1;durP2;ratioP2;P2;SDS_P1;SDS_P2;PMS_P1;PMS_P2;Temp;Humidity;BMP_temperature;BMP_pressure;BME280_temperature;BME280_humidity;BME280_pressure;Samples;Min_cycle;Max_cycle;Signal;HPM_P1;HPM_P2
2021/08/13 00:00:32;;;;;;;11.20;9.67;;;21.20;95.40;;;;;;5075864;28;20432;-67
2021/08/13 00:02:59;;;;;;;19.87;10.53;;;21.20;95.40;;;;;;5075250;28;20467;-68
2021/08/13 00:05:27;;;;;;;12.30;9.37;;;21.20;95.40;;;;;;5075488;28;20451;-67
2021/08/13 00:07:54;;;;;;;12.87;11.30;;;21.10;95.40;;;;;;5074360;28;20436;-67
2021/08/13 00:10:21;;;;;;;14.07;9.50;;;21.10;95.40;;;;;;5075327;28;20512;-67
2021/08/13 00:12:48;;;;;;;11.50;10.30;;;21.00;95.40;;;;;;5075118;28;20539;-68
2021/08/13 00:15:15;;;;;;;11.60;9.60;;;20.90;95.10;;;;;;5075179;28;20631;-67
2021/08/13 00:17:42;;;;;;;10.80;9.77;;;20.90;95.10;;;;;;5075167;28;20523;-68
2021/08/13 00:20:10;;;;;;;12.90;10.30;;;20.90;95.20;;;;;;5075534;28;20523;-68
2021/08/13 00:22:39;;;;;;;12.93;10.00;;;20.90;95.40;;;;;;5074211;28;20995;-68
2021/08/13 00:25:06;;;;;;;11.50;10.23;;;20.90;95.40;;;;;;5075541;28;20535;-69
2021/08/13 00:27:33;;;;;;;12.60;11.17;;;20.90;95.60;;;;;;5074467;28;20467;-68
2021/08/13 00:30:02;;;;;;;12.13;9.90;;;20.90;95.50;;;;;;5075264;28;20497;-67
2021/08/13 00:32:28;;;;;;;12.10;9.77;;;20.80;95.60;;;;;;5073699;28;20844;-67
2021/08/13 00:34:55;;;;;;;12.37;10.30;;;20.80;95.60;;;;;;5075315;28;20531;-67
2021/08/13 00:37:22;;;;;;;12.63;10.17;;;20.80;95.60;;;;;;5074527;28;20981;-68
2021/08/13 00:39:53;;;;;;;12.77;10.47;;;20.90;95.70;;;;;;5074664;28;20515;-67
2021/08/13 00:42:20;;;;;;;15.57;10.73;;;20.80;95.60;;;;;;5074873;28;20580;-67
2021/08/13 00:44:47;;;;;;;12.90;10.03;;;20.90;95.60;;;;;;5074516;28;20978;-67
2021/08/13 00:47:14;;;;;;;13.63;10.03;;;20.80;95.60;;;;;;5074903;28;20440;-67
2021/08/13 00:49:41;;;;;;;11.43;9.60;;;20.80;95.80;;;;;;5074456;28;20959;-67
2021/08/13 00:52:08;;;;;;;10.67;9.27;;;20.80;95.90;;;;;;5074912;28;20493;-68
2021/08/13 00:54:37;;;;;;;13.60;8.70;;;20.80;96.00;;;;;;5074597;28;20998;-68
2021/08/13 00:57:05;;;;;;;10.43;9.20;;;20.80;96.00;;;;;;5074967;28;20467;-68
2021/08/13 00:59:33;;;;;;;12.53;9.70;;;20.80;96.00;;;;;;5074137;28;20527;-67
2021/08/13 01:02:00;;;;;;;10.87;9.00;;;20.80;96.00;;;;;;5074446;28;20571;-67
2021/08/13 01:04:28;;;;;;;12.73;9.70;;;20.90;96.00;;;;;;5074246;28;20922;-67
2021/08/13 01:06:55;;;;;;;10.73;8.23;;;20.80;95.70;;;;;;5054287;28;20843;-68
2021/08/13 01:09:22;;;;;;;11.13;9.33;;;20.80;95.70;;;;;;5054573;28;20804;-68
2021/08/13 01:11:58;;;;;;;11.10;9.30;;;20.80;95.50;;;;;;5072860;28;20514;-67
2021/08/13 01:14:35;;;;;;;10.13;8.73;;;20.70;95.40;;;;;;5074521;28;20463;-67
2021/08/13 01:17:04;;;;;;;12.10;9.00;;;20.60;95.40;;;;;;5074250;28;20436;-67
2021/08/13 01:19:42;;;;;;;10.90;7.83;;;20.50;95.00;;;;;;5074337;28;20436;-67
2021/08/13 01:22:14;;;;;;;11.53;9.27;;;20.40;95.20;;;;;;5073993;28;20483;-70
2021/08/13 01:24:46;;;;;;;10.80;8.70;;;20.30;95.30;;;;;;5074310;28;20784;-67
2021/08/13 01:27:17;;;;;;;12.63;9.43;;;20.30;95.50;;;;;;5066121;28;20500;-67
2021/08/13 01:29:50;;;;;;;15.30;9.27;;;20.30;95.90;;;;;;5073234;28;20475;-68
2021/08/13 01:32:41;;;;;;;12.23;10.93;;;20.20;96.00;;;;;;5074031;28;20471;-67
2021/08/13 01:35:11;;;;;;;11.77;9.60;;;20.20;96.20;;;;;;5073660;28;20474;-68
2021/08/13 01:37:41;;;;;;;14.73;10.10;;;20.10;96.40;;;;;;5073931;28;20860;-68
2021/08/13 01:40:13;;;;;;;15.03;10.13;;;20.10;96.30;;;;;;5073552;28;20529;-67
2021/08/13 01:42:40;;;;;;;10.40;9.07;;;20.10;96.40;;;;;;5073654;28;20876;-68
2021/08/13 01:45:09;;;;;;;10.10;9.20;;;20.00;96.50;;;;;;5073250;28;20458;-68
2021/08/13 01:47:37;;;;;;;14.00;8.90;;;20.00;96.60;;;;;;5073742;28;20436;-68
2021/08/13 01:50:06;;;;;;;10.93;9.93;;;20.10;96.50;;;;;;5073163;28;20511;-67
2021/08/13 01:52:34;;;;;;;9.73;8.17;;;20.00;96.30;;;;;;5073715;28;20424;-67
2021/08/13 01:55:02;;;;;;;15.20;8.40;;;20.00;96.20;;;;;;5073035;28;20940;-67
2021/08/13 01:57:30;;;;;;;12.03;9.20;;;20.00;96.20;;;;;;5073308;28;20527;-67
2021/08/13 01:59:58;;;;;;;13.13;9.13;;;19.90;96.00;;;;;;5072913;28;20490;-67
2021/08/13 02:02:25;;;;;;;10.37;7.57;;;19.90;95.80;;;;;;5073235;28;20475;-67
2021/08/13 02:04:53;;;;;;;9.93;7.87;;;19.80;95.30;;;;;;5073089;28;20522;-67
2021/08/13 02:07:22;;;;;;;9.77;8.63;;;19.80;95.20;;;;;;5073356;28;20484;-67
2021/08/13 02:09:49;;;;;;;9.73;7.07;;;19.80;95.00;;;;;;5073158;28;20527;-68
2021/08/13 02:12:16;;;;;;;9.50;7.93;;;19.90;95.00;;;;;;5073218;28;20439;-68
2021/08/13 02:14:44;;;;;;;13.13;7.40;;;19.90;94.90;;;;;;5072906;28;20440;-67
2021/08/13 02:17:15;;;;;;;9.57;7.77;;;19.90;94.60;;;;;;5073213;28;20447;-67
2021/08/13 02:19:48;;;;;;;8.73;7.83;;;20.00;94.30;;;;;;5072972;28;20513;-67
2021/08/13 02:22:15;;;;;;;11.13;6.77;;;20.00;94.10;;;;;;5073030;28;20575;-69
2021/08/13 02:24:43;;;;;;;10.83;7.80;;;20.00;93.40;;;;;;5072948;28;20923;-68
2021/08/13 02:27:10;;;;;;;9.97;6.77;;;20.00;93.40;;;;;;5073081;28;20789;-68
2021/08/13 02:29:42;;;;;;;11.47;7.03;;;20.10;93.20;;;;;;5072800;28;20440;-68
2021/08/13 02:32:09;;;;;;;7.87;7.07;;;20.10;93.20;;;;;;5073276;28;20522;-69
2021/08/13 02:34:36;;;;;;;14.30;7.60;;;20.10;93.00;;;;;;5072197;28;20524;-68
2021/08/13 02:37:11;;;;;;;9.53;8.03;;;20.20;93.00;;;;;;5072989;28;20455;-67
2021/08/13 02:39:46;;;;;;;12.73;9.10;;;20.20;92.90;;;;;;5072238;28;20506;-69
2021/08/13 02:42:16;;;;;;;11.17;7.67;;;20.20;92.80;;;;;;5072978;28;20853;-68
2021/08/13 02:44:48;;;;;;;13.53;8.50;;;20.30;92.40;;;;;;5072469;28;20440;-67
2021/08/13 02:47:17;;;;;;;9.40;8.20;;;20.30;92.40;;;;;;5072470;28;20873;-67
2021/08/13 02:49:49;;;;;;;10.70;7.40;;;20.30;92.40;;;;;;5072917;28;20527;-68
2021/08/13 02:52:20;;;;;;;7.73;6.90;;;20.40;92.50;;;;;;5072131;28;20539;-68
2021/08/13 02:54:50;;;;;;;8.80;6.90;;;20.40;92.40;;;;;;5072897;28;20483;-67
2021/08/13 02:57:21;;;;;;;13.70;7.37;;;20.40;92.60;;;;;;5072234;28;20515;-67
2021/08/13 02:59:51;;;;;;;11.83;7.13;;;20.40;92.50;;;;;;5073101;28;20477;-67
2021/08/13 03:02:21;;;;;;;8.60;7.20;;;20.50;92.70;;;;;;5072433;28;20518;-68
2021/08/13 03:04:50;;;;;;;9.80;8.00;;;20.50;92.80;;;;;;5072507;28;20443;-68
2021/08/13 03:07:19;;;;;;;11.17;7.70;;;20.50;92.90;;;;;;5072251;28;20772;-67
2021/08/13 03:09:46;;;;;;;11.30;6.97;;;20.50;93.20;;;;;;5072732;28;20531;-67
2021/08/13 03:12:16;;;;;;;8.47;7.70;;;20.60;92.80;;;;;;5072390;28;20432;-67
2021/08/13 03:14:43;;;;;;;9.00;7.70;;;20.60;92.90;;;;;;5072703;28;20848;-67
2021/08/13 03:17:10;;;;;;;9.60;7.67;;;20.60;93.00;;;;;;5071641;28;20561;-67
2021/08/13 03:19:37;;;;;;;8.13;7.23;;;20.70;93.00;;;;;;5072918;28;20535;-67
2021/08/13 03:22:05;;;;;;;9.70;7.33;;;20.70;93.00;;;;;;5072205;28;20839;-68
2021/08/13 03:24:33;;;;;;;8.53;7.00;;;20.70;92.90;;;;;;5072566;28;20436;-67
2021/08/13 03:27:01;;;;;;;8.23;7.40;;;20.70;92.80;;;;;;5071686;28;20864;-67
2021/08/13 03:29:30;;;;;;;9.67;7.60;;;20.80;92.90;;;;;;5072564;28;20472;-68
2021/08/13 03:31:59;;;;;;;9.40;7.70;;;20.80;92.70;;;;;;5072158;28;20443;-67
2021/08/13 03:34:26;;;;;;;8.70;6.73;;;20.90;92.70;;;;;;5072336;28;20528;-68
2021/08/13 03:36:53;;;;;;;9.13;7.53;;;20.90;92.70;;;;;;5071849;28;20519;-68
2021/08/13 03:39:20;;;;;;;10.23;7.30;;;21.00;92.60;;;;;;5072310;28;20927;-68
2021/08/13 03:41:47;;;;;;;8.07;7.27;;;21.00;92.40;;;;;;5071903;28;20444;-67
2021/08/13 03:44:14;;;;;;;8.80;7.80;;;21.10;92.40;;;;;;5072420;28;20483;-68
2021/08/13 03:46:43;;;;;;;8.30;6.73;;;21.20;92.30;;;;;;5072362;28;20489;-68
2021/08/13 03:49:10;;;;;;;11.00;7.73;;;21.30;92.00;;;;;;5072276;28;20429;-68
2021/08/13 03:51:37;;;;;;;15.20;8.43;;;21.30;92.00;;;;;;5072634;28;20475;-68
2021/08/13 03:54:05;;;;;;;9.17;7.43;;;21.40;91.90;;;;;;5071968;28;20771;-68
2021/08/13 03:56:32;;;;;;;9.50;6.57;;;21.50;92.00;;;;;;5072407;28;20933;-67
2021/08/13 03:59:02;;;;;;;9.50;7.50;;;21.50;91.80;;;;;;5074797;28;20479;-68
2021/08/13 04:01:29;;;;;;;14.17;7.20;;;21.50;91.90;;;;;;5075910;28;20454;-67
2021/08/13 04:03:59;;;;;;;12.17;7.10;;;21.40;92.00;;;;;;5075587;28;20574;-67
2021/08/13 04:06:31;;;;;;;9.40;6.73;;;21.40;91.90;;;;;;5075863;28;20443;-68
2021/08/13 04:09:02;;;;;;;8.97;7.43;;;21.50;92.00;;;;;;5074686;28;20471;-67
2021/08/13 04:11:29;;;;;;;12.07;7.60;;;21.40;92.00;;;;;;5075896;28;21001;-68
2021/08/13 04:13:56;;;;;;;10.83;7.67;;;21.40;92.00;;;;;;5075331;28;20436;-72
2021/08/13 04:16:23;;;;;;;11.30;8.00;;;21.40;91.70;;;;;;5075639;28;20447;-67
2021/08/13 04:18:50;;;;;;;8.40;7.50;;;21.50;91.80;;;;;;5073992;28;20515;-67
2021/08/13 04:21:18;;;;;;;10.53;8.13;;;21.40;91.80;;;;;;5075223;28;20515;-68
2021/08/13 04:23:45;;;;;;;9.87;7.20;;;21.40;91.80;;;;;;5075164;28;20566;-68
2021/08/13 04:26:12;;;;;;;8.80;6.77;;;21.50;91.80;;;;;;5075159;28;20551;-69
2021/08/13 04:28:39;;;;;;;10.20;8.50;;;21.50;91.80;;;;;;5075146;28;20520;-68
2021/08/13 04:31:07;;;;;;;7.90;6.90;;;21.50;91.90;;;;;;5075392;28;20436;-68
2021/08/13 04:33:34;;;;;;;8.20;7.20;;;21.40;91.60;;;;;;5075220;28;20527;-68
2021/08/13 04:36:05;;;;;;;7.60;6.63;;;21.40;91.70;;;;;;5075195;28;20440;-67
2021/08/13 04:38:33;;;;;;;8.57;7.37;;;21.30;91.60;;;;;;5075099;28;20463;-68
2021/08/13 04:41:00;;;;;;;9.90;6.90;;;21.30;91.70;;;;;;5075317;28;20436;-67
2021/08/13 04:43:27;;;;;;;10.10;7.37;;;21.30;91.90;;;;;;5074409;28;20558;-67
2021/08/13 04:45:55;;;;;;;11.17;7.30;;;21.30;92.00;;;;;;5074375;28;20434;-68
2021/08/13 04:48:21;;;;;;;10.73;7.33;;;21.30;92.00;;;;;;5075179;28;20973;-67
2021/08/13 04:50:48;;;;;;;12.27;7.40;;;21.30;92.00;;;;;;5074286;28;20483;-67
2021/08/13 04:53:17;;;;;;;13.20;7.63;;;21.40;91.90;;;;;;5074809;28;20471;-68
2021/08/13 04:55:45;;;;;;;13.93;6.23;;;21.50;92.00;;;;;;5074508;28;20503;-68
2021/08/13 04:58:12;;;;;;;8.27;7.07;;;21.50;91.80;;;;;;5074972;28;20522;-68
2021/08/13 05:00:40;;;;;;;8.80;6.57;;;21.60;91.80;;;;;;5074353;28;20497;-67
2021/08/13 05:03:07;;;;;;;9.03;6.90;;;21.70;92.00;;;;;;5074710;28;20562;-68
2021/08/13 05:05:34;;;;;;;8.03;6.47;;;21.80;91.60;;;;;;5073181;28;20528;-72
2021/08/13 05:08:04;;;;;;;7.83;6.87;;;21.80;91.60;;;;;;5071177;28;20486;-68
2021/08/13 05:10:31;;;;;;;9.47;8.17;;;21.90;91.70;;;;;;5072194;28;20476;-67
2021/08/13 05:12:59;;;;;;;8.43;7.53;;;21.90;91.80;;;;;;5072500;28;20853;-68
2021/08/13 05:15:26;;;;;;;13.17;7.23;;;22.00;92.20;;;;;;5072495;28;20436;-67
2021/08/13 05:17:54;;;;;;;11.43;7.60;;;22.00;91.80;;;;;;5072938;28;20443;-68
2021/08/13 05:20:21;;;;;;;10.10;6.93;;;22.00;91.90;;;;;;5072301;28;20531;-67
2021/08/13 05:22:47;;;;;;;11.17;7.10;;;22.10;91.50;;;;;;5072280;28;20469;-68
2021/08/13 05:25:15;;;;;;;9.63;6.80;;;22.10;91.30;;;;;;5071380;28;20542;-67
2021/08/13 05:27:42;;;;;;;10.17;7.10;;;22.20;90.50;;;;;;5072641;28;20475;-68
2021/08/13 05:30:12;;;;;;;8.30;6.43;;;22.30;89.80;;;;;;5072023;28;20515;-68
2021/08/13 05:32:40;;;;;;;10.83;7.53;;;22.30;89.40;;;;;;5072372;28;20444;-67
2021/08/13 05:35:08;;;;;;;9.00;6.50;;;22.40;88.80;;;;;;5071636;28;20606;-70
2021/08/13 05:37:35;;;;;;;8.87;6.80;;;22.40;88.40;;;;;;5072850;28;20432;-67
2021/08/13 05:40:03;;;;;;;11.43;6.93;;;22.50;87.30;;;;;;5072450;28;20760;-67
2021/08/13 05:42:29;;;;;;;7.77;6.13;;;22.70;87.40;;;;;;5072280;28;20466;-68
2021/08/13 05:44:56;;;;;;;11.23;6.13;;;22.80;86.90;;;;;;5071329;28;20494;-68
2021/08/13 05:47:26;;;;;;;8.60;6.83;;;22.90;86.10;;;;;;5070416;28;20531;-67
2021/08/13 05:49:52;;;;;;;9.17;6.07;;;22.90;85.70;;;;;;5072081;28;20479;-68
2021/08/13 05:52:19;;;;;;;8.33;6.17;;;23.00;85.60;;;;;;5070625;28;20519;-67
2021/08/13 05:54:46;;;;;;;7.57;6.33;;;23.10;84.80;;;;;;5067290;28;20446;-73
2021/08/13 05:57:19;;;;;;;10.40;7.70;;;23.20;85.20;;;;;;5070758;28;20471;-71
2021/08/13 05:59:46;;;;;;;11.40;6.73;;;23.30;85.20;;;;;;5068431;28;20494;-70
2021/08/13 06:02:17;;;;;;;7.57;6.17;;;23.40;84.00;;;;;;5072540;28;20531;-68
2021/08/13 06:04:46;;;;;;;7.33;5.97;;;23.50;84.10;;;;;;5073582;28;20490;-67
2021/08/13 06:07:13;;;;;;;7.20;5.63;;;23.50;83.90;;;;;;5072876;28;20518;-68
2021/08/13 06:09:39;;;;;;;10.13;6.93;;;23.50;82.80;;;;;;5071592;28;20468;-68
2021/08/13 06:12:07;;;;;;;7.60;6.30;;;23.60;82.80;;;;;;5072695;28;20447;-69
2021/08/13 06:14:34;;;;;;;8.60;6.13;;;23.70;83.30;;;;;;5070579;28;20439;-68
2021/08/13 06:17:03;;;;;;;8.83;6.13;;;23.70;83.60;;;;;;5073401;28;20521;-69
2021/08/13 06:19:32;;;;;;;8.53;5.53;;;23.80;84.10;;;;;;5073178;28;20524;-67
2021/08/13 06:22:00;;;;;;;8.30;5.70;;;23.90;83.80;;;;;;5072619;28;20456;-68
2021/08/13 06:24:28;;;;;;;11.30;5.87;;;24.00;84.10;;;;;;5073319;28;20528;-67
2021/08/13 06:26:55;;;;;;;10.60;6.10;;;24.10;84.80;;;;;;5072992;28;20550;-68
2021/08/13 06:29:22;;;;;;;7.67;5.53;;;24.20;85.90;;;;;;5073319;28;20447;-68
2021/08/13 06:31:49;;;;;;;9.70;6.23;;;24.30;85.00;;;;;;5073300;28;20529;-68
2021/08/13 06:34:18;;;;;;;7.20;6.43;;;24.30;82.80;;;;;;5073297;28;20438;-68
2021/08/13 06:36:45;;;;;;;8.47;7.57;;;24.40;84.10;;;;;;5073240;28;20445;-68
2021/08/13 06:39:13;;;;;;;8.47;6.20;;;24.50;83.80;;;;;;5073235;28;20465;-68
2021/08/13 06:41:45;;;;;;;18.07;7.33;;;24.60;84.40;;;;;;5073158;28;20533;-68
2021/08/13 06:44:14;;;;;;;11.83;7.40;;;24.70;86.20;;;;;;5073103;28;20485;-70
2021/08/13 06:46:41;;;;;;;8.37;6.20;;;24.80;87.40;;;;;;5073090;28;20533;-67
2021/08/13 06:49:08;;;;;;;9.93;6.90;;;25.00;87.40;;;;;;5073283;28;20440;-68
2021/08/13 06:51:35;;;;;;;11.93;6.10;;;25.10;86.40;;;;;;5073221;28;20465;-68
2021/08/13 06:54:02;;;;;;;6.87;5.30;;;25.10;86.20;;;;;;5073337;28;20469;-67
2021/08/13 06:56:30;;;;;;;7.20;5.83;;;25.20;86.00;;;;;;5072921;28;20436;-68
2021/08/13 06:58:57;;;;;;;9.10;5.80;;;25.30;85.60;;;;;;5071226;28;20484;-68
2021/08/13 07:01:24;;;;;;;8.70;6.20;;;25.40;85.40;;;;;;5072842;28;20438;-68
2021/08/13 07:03:50;;;;;;;6.47;5.77;;;25.50;84.90;;;;;;5072556;28;20521;-68
2021/08/13 07:06:17;;;;;;;10.70;6.30;;;25.60;84.50;;;;;;5072899;28;20517;-68
2021/08/13 07:08:44;;;;;;;5.77;5.17;;;25.70;84.80;;;;;;5073012;28;20838;-70
2021/08/13 07:11:11;;;;;;;8.83;5.40;;;25.80;85.70;;;;;;5072874;28;20519;-68
2021/08/13 07:13:39;;;;;;;8.63;6.50;;;25.90;85.10;;;;;;5073044;28;20844;-68
2021/08/13 07:16:06;;;;;;;10.57;6.97;;;26.10;85.50;;;;;;5072908;28;20474;-69
2021/08/13 07:18:35;;;;;;;7.20;6.50;;;26.20;85.40;;;;;;5072981;28;20514;-68
2021/08/13 07:21:01;;;;;;;7.97;6.07;;;26.30;83.80;;;;;;5072939;28;20519;-68
2021/08/13 07:23:28;;;;;;;10.33;6.43;;;26.50;84.10;;;;;;5072680;28;20518;-68
2021/08/13 07:25:55;;;;;;;7.60;5.90;;;26.60;80.30;;;;;;5072318;28;20933;-67
2021/08/13 07:28:22;;;;;;;9.30;6.37;;;26.70;78.60;;;;;;5072755;28;20467;-68
2021/08/13 07:30:51;;;;;;;9.17;6.50;;;26.80;79.20;;;;;;5072766;28;20526;-68
2021/08/13 07:33:17;;;;;;;8.17;6.20;;;26.90;82.40;;;;;;5076552;28;20817;-68
2021/08/13 07:35:44;;;;;;;7.13;6.00;;;27.00;81.20;;;;;;5076551;28;20440;-69
2021/08/13 07:38:11;;;;;;;6.90;6.00;;;27.00;79.40;;;;;;5076553;28;20527;-68
2021/08/13 07:40:38;;;;;;;6.90;5.90;;;27.10;76.20;;;;;;5076425;28;20980;-68
2021/08/13 07:43:07;;;;;;;8.20;6.20;;;27.20;74.90;;;;;;5076438;28;20435;-69
2021/08/13 07:45:34;;;;;;;10.67;6.10;;;27.20;74.00;;;;;;5076229;28;20570;-68
2021/08/13 07:48:03;;;;;;;9.13;6.27;;;27.30;75.90;;;;;;5076055;28;20467;-68
2021/08/13 07:50:30;;;;;;;11.17;5.40;;;27.50;76.00;;;;;;5076193;28;20463;-68
2021/08/13 07:52:57;;;;;;;7.80;5.80;;;27.60;72.60;;;;;;5076004;28;21041;-68
2021/08/13 07:55:24;;;;;;;9.80;6.00;;;27.70;73.10;;;;;;5076162;28;20505;-68
2021/08/13 07:57:50;;;;;;;9.50;6.20;;;27.80;72.40;;;;;;5075427;28;20541;-68
2021/08/13 08:00:17;;;;;;;7.80;6.73;;;28.00;73.20;;;;;;5076089;28;20497;-68
2021/08/13 08:02:44;;;;;;;6.50;5.17;;;28.20;71.10;;;;;;5076140;28;20471;-68
2021/08/13 08:05:13;;;;;;;11.60;5.77;;;28.30;71.30;;;;;;5075937;28;20584;-68
2021/08/13 08:07:40;;;;;;;8.07;5.93;;;28.50;69.70;;;;;;5075648;28;20832;-68
2021/08/13 08:10:07;;;;;;;9.33;6.50;;;28.60;69.90;;;;;;5075934;28;20472;-69
2021/08/13 08:12:34;;;;;;;10.03;6.63;;;28.80;70.00;;;;;;5075931;28;20442;-68
2021/08/13 08:15:01;;;;;;;9.13;5.90;;;28.90;70.10;;;;;;5075792;28;20436;-68
2021/08/13 08:17:28;;;;;;;9.73;6.17;;;29.00;68.00;;;;;;5075800;28;20438;-68
2021/08/13 08:19:55;;;;;;;8.07;6.20;;;29.10;69.90;;;;;;5075792;28;20428;-68
2021/08/13 08:22:27;;;;;;;8.27;6.07;;;29.20;66.50;;;;;;5075428;28;20447;-68
2021/08/13 08:24:54;;;;;;;7.60;6.03;;;29.40;66.00;;;;;;5075724;28;20483;-68
2021/08/13 08:27:21;;;;;;;7.40;5.97;;;29.40;61.20;;;;;;5075535;28;20518;-68
2021/08/13 08:29:48;;;;;;;7.70;6.53;;;29.40;62.80;;;;;;5075030;28;20447;-68
2021/08/13 08:32:15;;;;;;;8.93;5.40;;;29.60;63.70;;;;;;5075459;28;20459;-68
2021/08/13 08:34:42;;;;;;;6.70;5.40;;;29.70;64.10;;;;;;5075429;28;20440;-68
2021/08/13 08:37:11;;;;;;;8.90;5.97;;;29.80;58.20;;;;;;5075296;28;20447;-68
2021/08/13 08:39:45;;;;;;;11.10;5.57;;;29.90;59.10;;;;;;5075399;28;20504;-70
2021/08/13 08:42:13;;;;;;;7.73;6.30;;;30.20;60.70;;;;;;5075367;28;20520;-68
2021/08/13 08:44:40;;;;;;;6.90;6.20;;;30.40;61.70;;;;;;5074562;28;20590;-70
2021/08/13 08:47:09;;;;;;;10.90;6.10;;;30.60;60.30;;;;;;5075062;28;20475;-69
2021/08/13 08:49:38;;;;;;;6.37;5.77;;;30.80;59.50;;;;;;5075031;28;20468;-68
2021/08/13 08:52:06;;;;;;;7.33;5.87;;;30.80;56.40;;;;;;5075093;28;20444;-68
2021/08/13 08:54:35;;;;;;;10.90;7.90;;;30.80;54.80;;;;;;5075214;28;20515;-68
2021/08/13 08:57:04;;;;;;;7.90;6.40;;;30.70;56.50;;;;;;5074960;28;20519;-68
2021/08/13 08:59:34;;;;;;;14.40;6.63;;;30.70;55.80;;;;;;5074933;28;20463;-68
2021/08/13 09:02:01;;;;;;;8.37;5.60;;;30.70;57.50;;;;;;5074965;28;20446;-68
2021/08/13 09:04:28;;;;;;;8.23;6.37;;;30.90;58.30;;;;;;5074785;28;20533;-68
2021/08/13 09:06:55;;;;;;;7.50;6.50;;;31.10;58.40;;;;;;5074845;28;20437;-67
2021/08/13 09:09:22;;;;;;;9.80;6.70;;;31.20;55.90;;;;;;5074613;28;20527;-68
2021/08/13 09:11:50;;;;;;;10.63;7.30;;;31.30;56.10;;;;;;5074709;28;20851;-68
2021/08/13 09:14:18;;;;;;;9.20;6.73;;;31.40;55.80;;;;;;5074509;28;20432;-67
2021/08/13 09:17:03;;;;;;;7.23;5.47;;;31.60;57.10;;;;;;5074601;28;20471;-68
2021/08/13 09:19:45;;;;;;;6.90;5.90;;;31.70;54.30;;;;;;5074657;28;20442;-68
2021/08/13 09:22:14;;;;;;;9.43;6.33;;;31.90;54.10;;;;;;5074670;28;20513;-69
2021/08/13 09:24:43;;;;;;;7.40;5.83;;;32.20;54.20;;;;;;5074222;28;20559;-68
2021/08/13 09:27:21;;;;;;;9.43;5.57;;;32.30;53.80;;;;;;5074210;28;20468;-69
2021/08/13 09:30:12;;;;;;;7.27;5.87;;;32.40;52.40;;;;;;5074247;28;20824;-68
2021/08/13 09:32:40;;;;;;;7.83;6.40;;;32.50;51.30;;;;;;5074351;28;20941;-68
2021/08/13 09:35:08;;;;;;;8.70;5.93;;;32.60;51.50;;;;;;5074230;28;20450;-68
2021/08/13 09:37:36;;;;;;;7.50;6.20;;;32.70;51.10;;;;;;5074181;28;20840;-68
2021/08/13 09:40:05;;;;;;;6.70;6.00;;;32.90;52.40;;;;;;5074087;28;20517;-68
2021/08/13 09:42:35;;;;;;;7.50;5.20;;;33.00;51.60;;;;;;5074202;28;20773;-68
2021/08/13 09:45:05;;;;;;;9.93;6.00;;;33.10;51.60;;;;;;5073794;28;20574;-68
2021/08/13 09:47:42;;;;;;;7.80;6.10;;;33.20;49.80;;;;;;5074155;28;20527;-67
2021/08/13 09:50:10;;;;;;;5.80;5.20;;;33.40;52.20;;;;;;5073786;28;20522;-69
2021/08/13 09:52:37;;;;;;;6.90;5.43;;;33.60;53.80;;;;;;5073861;28;20937;-68
2021/08/13 09:55:12;;;;;;;9.87;5.40;;;33.70;49.80;;;;;;5072727;28;20736;-68
2021/08/13 09:57:41;;;;;;;6.30;5.67;;;33.70;47.50;;;;;;5073829;28;20431;-69
2021/08/13 10:00:10;;;;;;;7.27;5.10;;;33.70;47.30;;;;;;5073743;28;20436;-68
2021/08/13 10:02:39;;;;;;;7.80;5.37;;;33.80;48.00;;;;;;5073668;28;20472;-69
2021/08/13 10:05:22;;;;;;;6.77;5.00;;;33.90;48.20;;;;;;5073808;28;20490;-68
2021/08/13 10:07:51;;;;;;;6.70;4.97;;;34.10;46.70;;;;;;5073329;28;20448;-68
2021/08/13 10:10:24;;;;;;;6.93;5.27;;;34.30;48.80;;;;;;5073363;28;20428;-69
2021/08/13 10:12:51;;;;;;;6.00;4.83;;;34.60;47.00;;;;;;5073470;28;20523;-68
2021/08/13 10:15:32;;;;;;;6.63;5.03;;;34.70;46.10;;;;;;5073433;28;20531;-68
2021/08/13 10:18:02;;;;;;;7.20;4.77;;;34.90;46.00;;;;;;5073475;28;20485;-68
2021/08/13 10:20:32;;;;;;;10.27;5.10;;;35.00;43.60;;;;;;5073501;28;20478;-69
2021/08/13 10:23:00;;;;;;;9.30;5.43;;;35.10;45.20;;;;;;5073517;28;20444;-68
2021/08/13 10:25:27;;;;;;;6.43;4.90;;;35.20;43.10;;;;;;5073276;28;21112;-68
2021/08/13 10:27:54;;;;;;;7.50;5.20;;;35.20;43.60;;;;;;5071428;28;20495;-68
2021/08/13 10:30:24;;;;;;;12.20;4.90;;;35.40;45.70;;;;;;5072889;28;20464;-68
2021/08/13 10:32:56;;;;;;;5.40;4.53;;;35.40;42.10;;;;;;5073270;28;20494;-68
2021/08/13 10:35:28;;;;;;;10.50;4.93;;;35.50;42.50;;;;;;5073345;28;20440;-68
2021/08/13 10:37:57;;;;;;;9.97;7.63;;;35.60;41.40;;;;;;5073151;28;20493;-68
2021/08/13 10:40:25;;;;;;;5.87;4.40;;;35.70;43.10;;;;;;5072994;28;20515;-66
2021/08/13 10:42:53;;;;;;;7.60;4.67;;;35.90;43.00;;;;;;5073220;28;20471;-66
2021/08/13 10:45:23;;;;;;;9.63;4.97;;;35.90;45.10;;;;;;5073126;28;20570;-67
2021/08/13 10:47:58;;;;;;;12.57;4.90;;;36.00;43.50;;;;;;5072918;28;20518;-66
2021/08/13 10:50:26;;;;;;;6.70;4.97;;;36.00;42.10;;;;;;5073056;28;20468;-66
2021/08/13 10:52:53;;;;;;;6.70;4.00;;;36.00;43.60;;;;;;5073006;28;20467;-66
2021/08/13 10:55:46;;;;;;;8.57;4.07;;;35.90;44.10;;;;;;5073209;28;20446;-68
2021/08/13 10:58:13;;;;;;;6.27;4.70;;;35.90;42.90;;;;;;5073338;28;20438;-67
2021/08/13 11:01:09;;;;;;;5.70;4.40;;;35.90;42.60;;;;;;5073155;28;20436;-67
2021/08/13 11:03:36;;;;;;;5.47;3.57;;;36.00;43.50;;;;;;5071068;28;20439;-66
2021/08/13 11:06:07;;;;;;;8.20;4.43;;;36.10;43.30;;;;;;5071419;28;20556;-66
2021/08/13 11:08:59;;;;;;;5.80;3.90;;;36.20;41.90;;;;;;5077256;28;20475;-66
2021/08/13 11:11:29;;;;;;;6.17;3.53;;;36.40;42.10;;;;;;5076716;28;20439;-67
2021/08/13 11:14:16;;;;;;;4.83;3.67;;;36.40;41.20;;;;;;5076906;28;20439;-66
2021/08/13 11:16:55;;;;;;;6.50;3.27;;;36.40;39.30;;;;;;5076559;28;20450;-66
2021/08/13 11:19:22;;;;;;;5.67;3.60;;;36.30;41.40;;;;;;5076540;28;20456;-66
2021/08/13 11:22:00;;;;;;;8.27;3.97;;;36.30;41.60;;;;;;5076744;28;20855;-67
2021/08/13 11:24:48;;;;;;;4.10;2.93;;;36.30;39.60;;;;;;5076386;28;20974;-67
2021/08/13 11:27:18;;;;;;;7.30;5.93;;;36.40;39.30;;;;;;5075976;28;20554;-67
2021/08/13 11:29:45;;;;;;;6.87;3.67;;;36.50;38.40;;;;;;5076528;28;20439;-67
2021/08/13 11:32:32;;;;;;;4.67;3.60;;;36.50;38.50;;;;;;5076556;28;20447;-68
2021/08/13 11:35:03;;;;;;;6.83;3.10;;;36.40;38.40;;;;;;5075645;28;20463;-66
2021/08/13 11:37:50;;;;;;;6.00;4.30;;;36.40;40.10;;;;;;5075837;28;20527;-66
2021/08/13 11:40:50;;;;;;;9.17;3.50;;;36.50;39.20;;;;;;5075576;28;20910;-69
2021/08/13 11:43:21;;;;;;;4.37;3.60;;;36.60;38.80;;;;;;5076208;28;20436;-69
2021/08/13 11:45:49;;;;;;;4.93;3.03;;;36.60;37.90;;;;;;5076087;28;20814;-69
2021/08/13 11:48:17;;;;;;;5.17;3.70;;;36.60;38.10;;;;;;5075603;28;20444;-69
2021/08/13 11:50:45;;;;;;;6.47;4.50;;;36.80;38.90;;;;;;5075629;28;20464;-69
2021/08/13 11:53:13;;;;;;;5.57;4.13;;;37.00;39.80;;;;;;5075610;28;20522;-69
2021/08/13 11:55:44;;;;;;;4.50;3.70;;;37.00;39.50;;;;;;5075605;28;20523;-67
2021/08/13 11:58:24;;;;;;;6.03;3.80;;;37.00;39.80;;;;;;5075774;28;20851;-66
2021/08/13 12:01:03;;;;;;;7.67;4.43;;;37.00;39.40;;;;;;5076023;28;20439;-66
2021/08/13 12:03:29;;;;;;;6.80;4.00;;;36.90;38.50;;;;;;5064021;28;20785;-66
2021/08/13 12:05:56;;;;;;;9.07;5.00;;;37.00;38.00;;;;;;5075712;28;20499;-69
2021/08/13 12:08:23;;;;;;;6.07;4.10;;;37.00;38.70;;;;;;5075062;28;20950;-69
2021/08/13 12:10:52;;;;;;;7.93;4.63;;;37.10;38.50;;;;;;5075683;28;20520;-68
2021/08/13 12:13:19;;;;;;;8.87;5.37;;;37.30;38.40;;;;;;5075301;28;20432;-73
2021/08/13 12:15:48;;;;;;;8.20;4.33;;;37.20;38.20;;;;;;5075232;28;20510;-70
2021/08/13 12:18:17;;;;;;;10.23;4.40;;;37.30;38.10;;;;;;5074107;28;20527;-69
2021/08/13 12:20:49;;;;;;;4.87;3.80;;;37.30;39.40;;;;;;5074625;28;20434;-69
2021/08/13 12:23:17;;;;;;;7.20;4.07;;;37.40;37.60;;;;;;5075729;28;20439;-70
2021/08/13 12:25:45;;;;;;;5.63;4.30;;;37.50;37.90;;;;;;5075530;28;20487;-69
2021/08/13 12:28:13;;;;;;;5.60;3.87;;;37.60;37.30;;;;;;5075637;28;20519;-68
2021/08/13 12:30:41;;;;;;;6.43;3.40;;;37.70;34.40;;;;;;5075488;28;20522;-67
2021/08/13 12:33:16;;;;;;;8.93;4.80;;;37.80;34.80;;;;;;5075576;28;20470;-68
2021/08/13 12:35:52;;;;;;;5.00;4.03;;;37.80;33.90;;;;;;5075242;28;20442;-67
2021/08/13 12:38:30;;;;;;;11.37;4.40;;;37.80;34.20;;;;;;5075557;28;20439;-69
2021/08/13 12:40:59;;;;;;;8.40;4.37;;;37.90;33.30;;;;;;5075310;28;20450;-67
2021/08/13 12:43:27;;;;;;;8.30;3.93;;;37.90;34.70;;;;;;5075147;28;20440;-67
2021/08/13 12:45:56;;;;;;;9.37;3.87;;;37.90;33.80;;;;;;5074930;28;20574;-67
2021/08/13 12:48:25;;;;;;;5.00;3.00;;;37.90;33.60;;;;;;5075387;28;20463;-67
2021/08/13 12:50:56;;;;;;;7.47;3.83;;;37.80;33.30;;;;;;5074954;28;20444;-66
2021/08/13 12:53:33;;;;;;;8.33;3.27;;;37.80;33.60;;;;;;5075003;28;20444;-67